Airfield :
LOGIN :

Register | Disclaimer

   EN    FR    IT 

 










Legend :    VFR   Marginal VFR   IFR   Intensive IFR   Very Intensive IFR
Visi :
Ceiling :
>= 8 km
>= 3000ft
5 to 8 km
1000 to 3000 ft
1500m to 5 km
500 to 1000 ft
800 to 1500m
200 to 500 ft
< 800m
< 200 ft
Symbols :   Thunderstorms  Fog  Heavy snow  Heavy precipitations  Wind > 20 kt
SIGMETs :     Misc.  Thunderstorms  Icing  Turbulence  Mountain Waves  Volcanic Ashes






- Airport Elevation : 46 ft
- IATA code : SNN


EINN - Shannon

CURRENT METAR :
  • 040430Z 26010KT 9999 -DZ FEW009 BKN016 BKN022 12/11 Q1022 NOSIG

EXPIRED METARs :
  • 040330Z 27009KT 9999 FEW011 BKN032 12/10 Q1022 NOSIG
  • 040300Z 27007KT 9999 FEW010 BKN028 12/10 Q1022 NOSIG
  • 040230Z 28007KT 9999 FEW012 BKN032 12/11 Q1022 NOSIG

TAF TAF EINN
Valid from the 04 at 00:00 until the 05 at 00:00 UTC


032300Z 0400/0424 26010KT 9999 FEW014 BKN025
PROB30
TEMPO 0400/0409 -SHRA BKN014
BECMG 0406/0408 30012KT
BECMG 0422/0424 27008KT -RADZ BKN010



MET'MAP, your aeronautical weather chart ! - Copyright ORBIFLY December 2007 - Disclaimer

ORBIFLY MET'MAP TEAM :

Programming & Development : Alexandra Zaïnal
Original concept : Baudouin d'Aumeries
Technical & hardware support : Manuel Goepfert
Assistance : Marc-Olivier Méhu




SOURCES & CREDITS :

   NOAA